KNQA

Millington Regional Jetport Airport

Millington, Tennessee, USA
METAR KNQA 190650Z 18004KT 10SM SKC M05/M08 A3032
Observed Flight Rules
Jan-19 @ 06:50 UTC (12 minutes ago) Visual Flight Rules
Wind Visibility Clouds
180° at 4 knots 10 miles
  • Clear skies
Temperatures Readings
Current -5°C / 23°F
Dewpoint -8°C / 18°F
Humidity 80%
Altimeter 30.32" Hg
Pressure 1027 hPa
Elevation 86
METAR KNQA 190650Z 18004KT 10SM SKC M05/M08 A3032
Observed Flight Rules
Jan-19 @ 06:50 UTC
(12 minutes ago)
VFR
Wind Visibility
180° at 4 knots 10 miles
Clouds
  • Clear skies
Temperature Dewpoint
-5°C / 23°F -8°C / 18°F
Humidity Altimeter Pressure
80% 30.32" Hg 1027 hPa